createdAt,value
2023-03-20T00:01:50.087Z,11.10
2023-03-20T00:04:16.629Z,11.00
2023-03-20T00:06:43.153Z,11.00
2023-03-20T00:09:09.596Z,11.00
2023-03-20T00:11:36.186Z,11.00
2023-03-20T00:14:02.598Z,11.00
2023-03-20T00:16:29.049Z,11.10
2023-03-20T00:18:55.501Z,11.10
2023-03-20T00:21:21.908Z,11.20
2023-03-20T00:23:48.354Z,11.20
2023-03-20T00:26:14.797Z,11.20
2023-03-20T00:28:41.201Z,11.30
2023-03-20T00:31:07.673Z,11.30
2023-03-20T00:33:34.106Z,11.20
2023-03-20T00:36:00.567Z,11.20
2023-03-20T00:38:26.956Z,11.20
2023-03-20T00:40:53.346Z,11.20
2023-03-20T00:43:19.719Z,11.10
2023-03-20T00:45:46.150Z,11.20
2023-03-20T00:48:12.587Z,11.20
2023-03-20T00:50:38.990Z,11.30
2023-03-20T00:53:05.406Z,11.30
2023-03-20T00:55:31.836Z,11.30
2023-03-20T00:57:58.362Z,11.40
2023-03-20T01:00:24.800Z,11.30
2023-03-20T01:02:51.237Z,11.30
2023-03-20T01:05:17.606Z,11.30
2023-03-20T01:07:44.032Z,11.20
2023-03-20T01:10:10.434Z,11.20
2023-03-20T01:12:36.852Z,11.10
2023-03-20T01:15:03.291Z,11.10
2023-03-20T01:17:29.726Z,11.00
2023-03-20T01:19:56.133Z,11.00
2023-03-20T01:22:22.494Z,11.00
2023-03-20T01:24:48.905Z,11.00
2023-03-20T01:27:15.318Z,11.10
2023-03-20T01:29:41.730Z,11.10
2023-03-20T01:32:08.149Z,11.20
2023-03-20T01:34:34.554Z,11.20
2023-03-20T01:37:00.939Z,11.10
2023-03-20T01:39:27.381Z,11.10
2023-03-20T01:41:53.782Z,11.00
2023-03-20T01:44:20.253Z,10.90
2023-03-20T01:46:46.833Z,10.90
2023-03-20T01:49:13.214Z,10.90
2023-03-20T01:51:39.634Z,10.90
2023-03-20T01:54:06.080Z,11.00
2023-03-20T01:56:32.536Z,11.00
2023-03-20T01:58:58.994Z,11.00
2023-03-20T02:01:25.418Z,10.90
2023-03-20T02:03:51.863Z,10.90
2023-03-20T02:06:18.310Z,10.80
2023-03-20T02:08:44.766Z,10.90
2023-03-20T02:11:11.133Z,10.80
2023-03-20T02:13:37.559Z,10.80
2023-03-20T02:16:03.975Z,10.80
2023-03-20T02:18:30.402Z,10.70
2023-03-20T02:20:56.814Z,10.80
2023-03-20T02:23:23.244Z,10.80
2023-03-20T02:25:49.675Z,10.80
2023-03-20T02:28:16.201Z,10.90
2023-03-20T02:30:42.690Z,10.80
2023-03-20T02:33:09.656Z,10.80
2023-03-20T02:35:36.268Z,10.80
2023-03-20T02:38:02.776Z,10.80
2023-03-20T02:40:29.205Z,10.80
2023-03-20T02:42:55.599Z,10.80
2023-03-20T02:45:22.030Z,10.80
2023-03-20T02:47:48.403Z,10.80
2023-03-20T02:50:14.798Z,10.80
2023-03-20T02:52:41.263Z,10.80
2023-03-20T02:55:07.653Z,10.90
2023-03-20T02:57:34.077Z,10.80
2023-03-20T03:00:00.453Z,10.90
2023-03-20T03:02:26.855Z,10.90
2023-03-20T03:04:53.300Z,10.90
2023-03-20T03:07:19.750Z,10.90
2023-03-20T03:09:46.295Z,10.80
2023-03-20T03:12:12.731Z,10.90
2023-03-20T03:14:39.164Z,10.80
2023-03-20T03:17:05.595Z,10.80
2023-03-20T03:19:32.007Z,10.70
2023-03-20T03:21:58.431Z,10.70
2023-03-20T03:24:39.338Z,10.70
2023-03-20T03:27:07.020Z,10.60
2023-03-20T03:29:33.462Z,10.60
2023-03-20T03:31:59.840Z,10.70
2023-03-20T03:34:26.303Z,10.60
2023-03-20T03:36:52.684Z,10.60
2023-03-20T03:39:19.163Z,10.60
2023-03-20T03:41:45.633Z,10.60
2023-03-20T03:44:12.045Z,10.50
2023-03-20T03:46:38.465Z,10.50
2023-03-20T03:49:04.870Z,10.40
2023-03-20T03:51:31.312Z,10.40
2023-03-20T03:53:57.705Z,10.50
2023-03-20T03:56:24.137Z,10.50
2023-03-20T03:58:50.588Z,10.50
2023-03-20T04:01:17.007Z,10.50
2023-03-20T04:03:43.392Z,10.50
2023-03-20T04:06:09.831Z,10.50
2023-03-20T04:08:36.239Z,10.40
2023-03-20T04:11:02.650Z,10.40
2023-03-20T04:13:29.024Z,10.40
2023-03-20T04:15:55.487Z,10.40
2023-03-20T04:18:21.975Z,10.40
2023-03-20T04:20:48.377Z,10.50
2023-03-20T04:23:14.818Z,10.50
2023-03-20T04:25:41.253Z,10.40
2023-03-20T04:28:07.645Z,10.40
2023-03-20T04:30:34.011Z,10.40
2023-03-20T04:33:00.524Z,10.40
2023-03-20T04:35:26.944Z,10.40
2023-03-20T04:37:53.379Z,10.30
2023-03-20T04:40:19.820Z,10.30
2023-03-20T04:42:46.310Z,10.30
2023-03-20T04:45:12.781Z,10.20
2023-03-20T04:47:39.237Z,10.20
2023-03-20T04:50:05.674Z,10.20
2023-03-20T04:52:32.057Z,10.30
2023-03-20T04:54:58.433Z,10.20
2023-03-20T04:57:24.828Z,10.20
2023-03-20T04:59:51.265Z,10.20
2023-03-20T05:02:17.660Z,10.20
2023-03-20T05:04:44.045Z,10.20
2023-03-20T05:07:10.446Z,10.20
2023-03-20T05:09:36.901Z,10.20
2023-03-20T05:12:03.332Z,10.10
2023-03-20T05:14:29.717Z,10.10
2023-03-20T05:16:56.169Z,10.10
2023-03-20T05:19:22.663Z,10.00
2023-03-20T05:21:49.040Z,10.00
2023-03-20T05:24:15.450Z,9.90
2023-03-20T05:26:41.841Z,9.90
2023-03-20T05:29:08.223Z,9.90
2023-03-20T05:31:34.612Z,9.90
2023-03-20T05:34:01.037Z,9.90
2023-03-20T05:36:27.450Z,9.80
2023-03-20T05:38:53.865Z,9.80
2023-03-20T05:41:20.296Z,9.80
2023-03-20T05:43:46.685Z,9.70
2023-03-20T05:46:13.122Z,9.70
2023-03-20T05:48:39.607Z,9.70
2023-03-20T05:51:06.030Z,9.70
2023-03-20T05:53:32.479Z,9.70
2023-03-20T05:55:58.925Z,9.70
2023-03-20T05:58:25.378Z,9.70
2023-03-20T06:00:51.762Z,9.70
2023-03-20T06:03:18.165Z,9.70
2023-03-20T06:05:44.541Z,9.70
2023-03-20T06:08:10.937Z,9.70
2023-03-20T06:10:37.390Z,9.70
2023-03-20T06:13:03.822Z,9.70
2023-03-20T06:15:30.292Z,9.70
2023-03-20T06:17:56.720Z,9.70
2023-03-20T06:20:23.121Z,9.70
2023-03-20T06:22:49.533Z,9.70
2023-03-20T06:25:16.072Z,9.80
2023-03-20T06:27:42.493Z,9.80
2023-03-20T06:30:08.953Z,9.80
2023-03-20T06:32:35.402Z,9.80
2023-03-20T06:35:01.876Z,9.80
2023-03-20T06:37:28.346Z,9.80
2023-03-20T06:39:54.794Z,9.80
2023-03-20T06:42:21.231Z,9.80
2023-03-20T06:44:47.679Z,9.80
2023-03-20T06:47:14.163Z,9.90
2023-03-20T06:49:40.602Z,9.90
2023-03-20T06:52:07.077Z,9.90
2023-03-20T06:54:33.534Z,9.90
2023-03-20T06:56:59.937Z,9.90
2023-03-20T06:59:26.322Z,9.90
2023-03-20T07:01:52.894Z,9.90
2023-03-20T07:04:19.419Z,10.00
2023-03-20T07:06:45.863Z,10.00
2023-03-20T07:09:12.266Z,10.00
2023-03-20T07:11:38.691Z,10.10
2023-03-20T07:14:05.135Z,10.10
2023-03-20T07:16:31.562Z,10.10
2023-03-20T07:18:57.981Z,10.10
2023-03-20T07:21:24.430Z,10.10
2023-03-20T07:23:50.859Z,10.10
2023-03-20T07:26:17.237Z,10.10
2023-03-20T07:28:43.610Z,10.10
2023-03-20T07:31:10.027Z,10.00
2023-03-20T07:33:36.611Z,10.00
2023-03-20T07:36:03.023Z,10.00
2023-03-20T07:38:29.464Z,10.10
2023-03-20T07:40:55.922Z,10.10
2023-03-20T07:43:22.324Z,10.20
2023-03-20T07:45:48.821Z,10.20
2023-03-20T07:48:15.512Z,10.30
2023-03-20T07:50:41.911Z,10.30
2023-03-20T07:53:08.338Z,10.20
2023-03-20T07:55:34.961Z,10.30
2023-03-20T07:58:01.451Z,10.30
2023-03-20T08:00:28.479Z,10.30
2023-03-20T08:02:54.999Z,10.30
2023-03-20T08:05:21.465Z,10.40
2023-03-20T08:07:47.942Z,10.40
2023-03-20T08:10:14.357Z,10.40
2023-03-20T08:12:40.785Z,10.40
2023-03-20T08:15:07.362Z,10.50
2023-03-20T08:17:33.902Z,10.50
2023-03-20T08:20:00.399Z,10.50
2023-03-20T08:22:26.812Z,10.60
2023-03-20T08:24:53.237Z,10.60
2023-03-20T08:27:19.715Z,10.70
2023-03-20T08:29:46.128Z,10.70
2023-03-20T08:32:12.538Z,10.70
2023-03-20T08:34:38.996Z,10.80
2023-03-20T08:37:05.437Z,10.80
2023-03-20T08:39:31.838Z,10.90
2023-03-20T08:41:59.712Z,11.00
2023-03-20T08:44:27.379Z,11.00
2023-03-20T08:46:53.827Z,11.10
2023-03-20T08:49:20.353Z,11.10
2023-03-20T08:51:46.833Z,11.20
2023-03-20T08:54:13.419Z,11.20
2023-03-20T08:56:39.900Z,11.20
2023-03-20T08:59:06.552Z,11.20
2023-03-20T09:01:48.308Z,11.20
2023-03-20T09:04:16.028Z,11.20
2023-03-20T09:06:42.541Z,11.20
2023-03-20T09:09:08.991Z,11.20
2023-03-20T09:11:35.443Z,11.20
2023-03-20T09:14:01.923Z,11.20
2023-03-20T09:16:28.370Z,11.20
2023-03-20T09:18:54.793Z,11.20
2023-03-20T09:21:21.276Z,11.30
2023-03-20T09:23:47.737Z,11.40
2023-03-20T09:26:14.149Z,11.40
2023-03-20T09:28:40.557Z,11.40
2023-03-20T09:31:07.014Z,11.50
2023-03-20T09:33:33.501Z,11.50
2023-03-20T09:35:59.986Z,11.60
2023-03-20T09:38:26.499Z,11.60
2023-03-20T09:40:52.983Z,11.60
2023-03-20T09:43:19.434Z,11.60
2023-03-20T09:45:45.849Z,11.70
2023-03-20T09:48:12.383Z,11.80
2023-03-20T09:50:38.828Z,11.80
2023-03-20T09:53:05.202Z,11.90
2023-03-20T09:55:31.673Z,11.90
2023-03-20T09:57:58.162Z,12.00
2023-03-20T10:00:24.532Z,12.00
2023-03-20T10:02:50.923Z,12.20
2023-03-20T10:05:17.355Z,12.30
2023-03-20T10:07:43.794Z,12.40
2023-03-20T10:10:10.161Z,12.50
2023-03-20T10:12:36.705Z,12.60
2023-03-20T10:15:03.158Z,12.60
2023-03-20T10:17:29.611Z,12.70
2023-03-20T10:19:56.091Z,12.70
2023-03-20T10:22:22.520Z,12.70
2023-03-20T10:24:48.998Z,12.70
2023-03-20T10:27:15.742Z,12.70
2023-03-20T10:29:42.182Z,12.60
2023-03-20T10:32:08.579Z,12.50
2023-03-20T10:34:35.055Z,12.50
2023-03-20T10:37:01.481Z,12.40
2023-03-20T10:39:27.925Z,12.40
2023-03-20T10:41:54.335Z,12.30
2023-03-20T10:44:20.813Z,12.40
2023-03-20T10:46:47.376Z,12.40
2023-03-20T10:49:13.859Z,12.40
2023-03-20T10:51:40.309Z,12.40
2023-03-20T10:54:06.822Z,12.30
2023-03-20T10:56:33.222Z,12.30
2023-03-20T10:58:59.628Z,12.20
2023-03-20T11:01:26.143Z,12.10
2023-03-20T11:03:52.710Z,12.10
2023-03-20T11:06:19.213Z,12.10
2023-03-20T11:08:45.752Z,12.20
2023-03-20T11:11:12.408Z,12.20
2023-03-20T11:13:38.789Z,12.20
2023-03-20T11:16:05.347Z,12.30
2023-03-20T11:18:31.964Z,12.30
2023-03-20T11:20:58.446Z,12.40
2023-03-20T11:23:24.832Z,12.50
2023-03-20T11:25:51.271Z,12.60
2023-03-20T11:28:17.673Z,12.60
2023-03-20T11:31:03.275Z,12.60
2023-03-20T11:33:30.526Z,12.70
2023-03-20T11:35:56.970Z,12.60
2023-03-20T11:38:23.362Z,12.60
2023-03-20T11:40:49.776Z,12.50
2023-03-20T11:43:16.224Z,12.50
2023-03-20T11:45:42.637Z,12.50
2023-03-20T11:48:09.016Z,12.40
2023-03-20T11:50:35.828Z,12.40
2023-03-20T11:53:02.458Z,12.40
2023-03-20T11:55:28.847Z,12.40
2023-03-20T11:57:55.234Z,12.40
2023-03-20T12:00:21.624Z,12.50
2023-03-20T12:02:48.134Z,12.70
2023-03-20T12:05:16.742Z,12.70
2023-03-20T12:07:43.313Z,12.60
2023-03-20T12:10:09.751Z,12.60
2023-03-20T12:12:36.149Z,12.50
2023-03-20T12:15:02.651Z,12.60
2023-03-20T12:17:29.135Z,12.60
2023-03-20T12:19:55.558Z,12.50
2023-03-20T12:22:21.997Z,12.50
2023-03-20T12:24:48.414Z,12.50
2023-03-20T12:27:14.838Z,12.50
2023-03-20T12:29:41.220Z,12.50
2023-03-20T12:32:07.782Z,12.40
2023-03-20T12:34:34.246Z,12.40
2023-03-20T12:37:00.671Z,12.50
2023-03-20T12:39:27.095Z,12.50
2023-03-20T12:41:54.558Z,12.50
2023-03-20T12:44:20.999Z,12.60
2023-03-20T12:46:47.466Z,12.60
2023-03-20T12:49:13.862Z,12.60
2023-03-20T12:51:40.243Z,12.60
2023-03-20T12:54:06.756Z,12.50
2023-03-20T12:56:33.163Z,12.40
2023-03-20T12:58:59.547Z,12.30
2023-03-20T13:01:26.012Z,12.30
2023-03-20T13:03:52.470Z,12.30
2023-03-20T13:06:18.913Z,12.30
2023-03-20T13:08:45.494Z,12.40
2023-03-20T13:11:12.398Z,12.40
2023-03-20T13:13:38.844Z,12.50
2023-03-20T13:16:05.344Z,12.50
2023-03-20T13:18:31.797Z,12.50
2023-03-20T13:20:58.203Z,12.40
2023-03-20T13:23:24.599Z,12.40
2023-03-20T13:25:50.992Z,12.20
2023-03-20T13:28:17.434Z,12.10
2023-03-20T13:30:43.818Z,12.00
2023-03-20T13:33:10.249Z,12.00
2023-03-20T13:35:36.864Z,12.00
2023-03-20T13:38:03.384Z,11.90
2023-03-20T13:40:29.865Z,11.90
2023-03-20T13:42:56.332Z,11.80
2023-03-20T13:45:22.785Z,11.80
2023-03-20T13:47:49.180Z,11.80
2023-03-20T13:50:15.725Z,11.70
2023-03-20T13:52:42.118Z,11.80
2023-03-20T13:55:08.544Z,11.80
2023-03-20T13:57:34.977Z,11.80
2023-03-20T14:00:01.431Z,11.70
2023-03-20T14:02:27.834Z,11.70
2023-03-20T14:04:54.304Z,11.60
2023-03-20T14:07:20.843Z,11.50
2023-03-20T14:09:47.289Z,11.40
2023-03-20T14:12:13.702Z,11.40
2023-03-20T14:14:40.150Z,11.40
2023-03-20T14:17:06.730Z,11.40
2023-03-20T14:19:33.172Z,11.40
2023-03-20T14:21:59.646Z,11.40
2023-03-20T14:24:26.067Z,11.40
2023-03-20T14:26:52.959Z,11.40
2023-03-20T14:29:19.467Z,11.40
2023-03-20T14:31:45.921Z,11.40
2023-03-20T14:34:12.558Z,11.40
2023-03-20T14:36:39.051Z,11.40
2023-03-20T14:39:05.515Z,11.30
2023-03-20T14:41:31.962Z,11.30
2023-03-20T14:43:58.459Z,11.30
2023-03-20T14:46:24.931Z,11.30
2023-03-20T14:48:51.312Z,11.30
2023-03-20T14:51:17.785Z,11.30
2023-03-20T14:53:44.200Z,11.30
2023-03-20T14:56:10.641Z,11.40
2023-03-20T14:58:37.104Z,11.40
2023-03-20T15:01:03.558Z,11.40
2023-03-20T15:03:30.053Z,11.30
2023-03-20T15:05:56.483Z,11.30
2023-03-20T15:08:22.976Z,11.30
2023-03-20T15:10:49.454Z,11.30
2023-03-20T15:13:15.895Z,11.20
2023-03-20T15:15:42.338Z,11.20
2023-03-20T15:18:08.741Z,11.20
2023-03-20T15:20:35.464Z,11.20
2023-03-20T15:23:02.077Z,11.30
2023-03-20T15:25:28.539Z,11.30
2023-03-20T15:27:55.033Z,11.30
2023-03-20T15:30:21.469Z,11.30
2023-03-20T15:32:47.926Z,11.30
2023-03-20T15:35:14.369Z,11.30
2023-03-20T15:37:40.806Z,11.30
2023-03-20T15:40:07.465Z,11.20
2023-03-20T15:42:33.929Z,11.20
2023-03-20T15:45:00.428Z,11.20
2023-03-20T15:47:26.900Z,11.20
2023-03-20T15:49:53.355Z,11.20
2023-03-20T15:52:19.795Z,11.20
2023-03-20T15:54:46.226Z,11.10
2023-03-20T15:57:12.661Z,11.00
2023-03-20T15:59:39.100Z,11.00
2023-03-20T16:02:05.557Z,11.00
2023-03-20T16:04:32.028Z,11.00
2023-03-20T16:06:59.176Z,10.90
2023-03-20T16:09:25.625Z,10.90
2023-03-20T16:11:52.073Z,10.80
2023-03-20T16:14:18.557Z,10.80
2023-03-20T16:16:44.984Z,10.70
2023-03-20T16:19:11.382Z,10.80
2023-03-20T16:21:37.808Z,10.70
2023-03-20T16:24:04.250Z,10.70
2023-03-20T16:26:30.672Z,10.70
2023-03-20T16:28:57.108Z,10.70
2023-03-20T16:31:23.550Z,10.60
2023-03-20T16:33:49.986Z,10.70
2023-03-20T16:36:16.543Z,10.70
2023-03-20T16:38:42.957Z,10.70
2023-03-20T16:41:09.392Z,10.70
2023-03-20T16:43:35.870Z,10.70
2023-03-20T16:46:02.303Z,10.70
2023-03-20T16:48:28.689Z,10.70
2023-03-20T16:50:55.132Z,10.70
2023-03-20T16:53:21.586Z,10.70
2023-03-20T16:55:47.986Z,10.70
2023-03-20T16:58:14.378Z,10.70
2023-03-20T17:00:40.850Z,10.70
2023-03-20T17:03:07.265Z,10.70
2023-03-20T17:05:36.628Z,10.70
2023-03-20T17:08:03.236Z,10.70
2023-03-20T17:10:29.717Z,10.60
2023-03-20T17:12:56.178Z,10.60
2023-03-20T17:15:22.662Z,10.60
2023-03-20T17:17:49.064Z,10.70
2023-03-20T17:20:15.796Z,10.60
2023-03-20T17:22:42.251Z,10.60
2023-03-20T17:25:08.707Z,10.60
2023-03-20T17:27:35.136Z,10.60
2023-03-20T17:30:01.548Z,10.60
2023-03-20T17:32:27.946Z,10.50
2023-03-20T17:34:54.376Z,10.50
2023-03-20T17:37:20.812Z,10.50
2023-03-20T17:39:47.323Z,10.40
2023-03-20T17:42:13.729Z,10.40
2023-03-20T17:44:40.166Z,10.40
2023-03-20T17:47:06.761Z,10.50
2023-03-20T17:49:33.190Z,10.50
2023-03-20T17:51:59.593Z,10.50
2023-03-20T17:54:26.006Z,10.50
2023-03-20T17:56:52.387Z,10.50
2023-03-20T17:59:18.861Z,10.50
2023-03-20T18:01:45.346Z,10.50
2023-03-20T18:04:11.883Z,10.50
2023-03-20T18:06:38.281Z,10.50
2023-03-20T18:09:04.692Z,10.60
2023-03-20T18:11:31.153Z,10.60
2023-03-20T18:13:57.583Z,10.60
2023-03-20T18:16:24.107Z,10.60
2023-03-20T18:18:50.612Z,10.60
2023-03-20T18:21:16.999Z,10.60
2023-03-20T18:23:43.461Z,10.60
2023-03-20T18:26:09.906Z,10.60
2023-03-20T18:28:36.512Z,10.60
2023-03-20T18:31:02.991Z,10.60
2023-03-20T18:33:29.510Z,10.60
2023-03-20T18:35:56.015Z,10.60
2023-03-20T18:38:22.498Z,10.70
2023-03-20T18:40:49.007Z,10.70
2023-03-20T18:43:15.599Z,10.60
2023-03-20T18:45:42.213Z,10.70
2023-03-20T18:48:08.661Z,10.70
2023-03-20T18:50:37.134Z,10.70
2023-03-20T18:53:04.135Z,10.70
2023-03-20T18:55:30.585Z,10.70
2023-03-20T18:57:56.975Z,10.70
2023-03-20T19:00:23.442Z,10.70
2023-03-20T19:02:49.918Z,10.70
2023-03-20T19:05:16.539Z,10.60
2023-03-20T19:07:42.981Z,10.70
2023-03-20T19:10:09.401Z,10.70
2023-03-20T19:12:35.808Z,10.70
2023-03-20T19:15:02.234Z,10.70
2023-03-20T19:17:28.697Z,10.70
2023-03-20T19:19:55.119Z,10.70
2023-03-20T19:22:29.403Z,10.70
2023-03-20T19:24:56.296Z,10.80
2023-03-20T19:27:22.753Z,10.80
2023-03-20T19:29:49.149Z,10.70
2023-03-20T19:32:15.968Z,10.80
2023-03-20T19:37:28.833Z,10.80
2023-03-20T19:39:55.237Z,10.80
2023-03-20T19:42:50.752Z,10.80
2023-03-20T19:45:08.083Z,10.80
2023-03-20T19:47:34.532Z,10.80
2023-03-20T19:50:01.048Z,10.80
2023-03-20T19:52:28.589Z,10.80
2023-03-20T19:55:02.698Z,10.80
2023-03-20T19:57:30.043Z,10.80
2023-03-20T20:00:39.623Z,10.80
2023-03-20T20:02:42.920Z,10.80
2023-03-20T20:05:09.598Z,10.80
2023-03-20T20:08:06.811Z,10.80
2023-03-20T20:10:22.470Z,10.80
2023-03-20T20:12:49.111Z,10.80
2023-03-20T20:15:15.879Z,10.80
2023-03-20T20:17:42.294Z,10.80
2023-03-20T20:20:08.670Z,10.80
2023-03-20T20:22:35.143Z,10.80
2023-03-20T20:25:01.601Z,10.80
2023-03-20T20:27:28.065Z,10.80
2023-03-20T20:29:54.454Z,10.90
2023-03-20T20:32:20.910Z,10.90
2023-03-20T20:38:25.292Z,10.90
2023-03-20T20:40:20.486Z,10.90
2023-03-20T20:42:47.493Z,10.90
2023-03-20T20:45:14.054Z,11.00
2023-03-20T20:47:40.518Z,11.00
2023-03-20T20:50:06.998Z,10.90
2023-03-20T20:52:33.520Z,11.00
2023-03-20T20:55:14.520Z,11.00
2023-03-20T20:57:46.365Z,11.00
2023-03-20T21:00:12.758Z,10.90
2023-03-20T21:02:39.262Z,11.00
2023-03-20T21:05:05.781Z,10.90
2023-03-20T21:07:32.251Z,11.00
2023-03-20T21:09:58.718Z,11.00
2023-03-20T21:12:36.305Z,11.00
2023-03-20T21:15:06.918Z,11.00
2023-03-20T21:17:33.371Z,11.00
2023-03-20T21:19:59.861Z,11.00
2023-03-20T21:22:26.291Z,11.00
2023-03-20T21:25:00.755Z,11.00
2023-03-20T21:27:33.691Z,10.90
2023-03-20T21:30:00.202Z,10.90
2023-03-20T21:32:26.660Z,10.90
2023-03-20T21:34:53.231Z,11.00
2023-03-20T21:38:29.925Z,11.00
2023-03-20T21:40:06.097Z,10.90
2023-03-20T21:42:32.543Z,11.00
2023-03-20T21:50:54.156Z,11.00
2023-03-20T21:54:14.662Z,10.90
2023-03-20T21:59:38.136Z,10.90
2023-03-20T22:02:01.595Z,10.90
2023-03-20T22:10:46.031Z,11.00
2023-03-20T22:16:05.725Z,11.00
2023-03-20T22:19:08.595Z,10.90
2023-03-20T22:24:45.181Z,10.90
2023-03-20T22:30:04.745Z,11.00
2023-03-20T22:32:47.478Z,11.00
2023-03-20T22:35:40.774Z,11.00
2023-03-20T22:46:16.911Z,11.00
2023-03-20T22:48:46.360Z,11.00
2023-03-20T22:51:13.648Z,11.00
2023-03-20T22:53:40.146Z,11.00
2023-03-20T22:56:06.884Z,11.00
2023-03-20T22:58:33.389Z,11.00
2023-03-20T23:00:59.814Z,11.00
2023-03-20T23:03:40.422Z,11.00
2023-03-20T23:06:08.021Z,11.00
2023-03-20T23:08:42.468Z,11.00
2023-03-20T23:11:14.296Z,11.00
2023-03-20T23:13:40.752Z,11.00
2023-03-20T23:16:07.203Z,11.00
2023-03-20T23:18:33.617Z,11.00
2023-03-20T23:21:00.105Z,11.10
2023-03-20T23:23:26.531Z,11.10
2023-03-20T23:25:52.896Z,11.10
2023-03-20T23:28:19.312Z,11.10
2023-03-20T23:30:54.056Z,11.10
2023-03-20T23:33:29.673Z,11.10
2023-03-20T23:36:01.257Z,11.10
2023-03-20T23:38:35.123Z,11.10
2023-03-20T23:41:01.562Z,11.10
2023-03-20T23:43:27.993Z,11.10
2023-03-20T23:45:54.470Z,11.10
2023-03-20T23:48:20.895Z,11.10
2023-03-20T23:50:53.024Z,11.10
2023-03-20T23:53:21.226Z,11.10
2023-03-20T23:55:47.800Z,11.20
2023-03-20T23:58:14.227Z,11.20
